Time,TemperatureF,DewpointF,PressureIn,WindDirection,WindDirectionDegrees,WindSpeedMPH,WindSpeedGustMPH,Humidity,HourlyPrecipIn,Conditions,Clouds,dailyrainin,SoftwareType,DateUTC
2013-02-01 00:02:00,-999.0,32.0,-100.00,South,176,6.0,9.0,78,0.00,,,-99.99,,2013-02-01 07:02:00,
2013-02-01 00:12:00,38.0,33.0,-100.00,SSE,165,8.0,10.0,79,0.00,,,-99.99,,2013-02-01 07:12:00,
2013-02-01 00:21:00,38.0,33.0,-100.00,South,169,10.0,13.0,80,0.00,,,-99.99,,2013-02-01 07:21:00,
2013-02-01 00:32:00,38.0,33.0,-100.00,South,169,10.0,13.0,80,0.00,,,-99.99,,2013-02-01 07:32:00,
2013-02-01 00:41:00,39.0,33.0,-100.00,South,178,8.0,11.0,79,0.00,,,-99.99,,2013-02-01 07:41:00,
2013-02-01 00:52:00,39.0,33.0,-100.00,South,178,8.0,11.0,79,0.00,,,-99.99,,2013-02-01 07:52:00,
2013-02-01 01:01:00,39.0,33.0,-100.00,South,178,8.0,11.0,79,0.00,,,-99.99,,2013-02-01 08:01:00,
2013-02-01 01:11:00,39.0,33.0,-100.00,South,176,9.0,14.0,79,0.00,,,-99.99,,2013-02-01 08:11:00,
2013-02-01 01:21:00,39.0,33.0,-100.00,South,185,11.0,17.0,79,0.00,,,-99.99,,2013-02-01 08:21:00,
2013-02-01 01:31:00,39.0,33.0,-100.00,South,185,11.0,17.0,79,0.00,,,-99.99,,2013-02-01 08:31:00,
2013-02-01 01:42:00,39.0,33.0,-100.00,SW,217,3.0,4.0,79,0.00,,,-99.99,,2013-02-01 08:42:00,
2013-02-01 01:52:00,39.0,33.0,-100.00,SW,234,4.0,6.0,77,0.00,,,-99.99,,2013-02-01 08:52:00,
2013-02-01 02:01:00,39.0,33.0,-100.00,SW,234,4.0,6.0,77,0.00,,,-99.99,,2013-02-01 09:01:00,
2013-02-01 02:11:00,39.0,33.0,-100.00,South,174,8.0,13.0,79,0.00,,,-99.99,,2013-02-01 09:11:00,
2013-02-01 02:21:00,39.0,33.0,-100.00,SSW,206,7.0,9.0,78,0.00,,,-99.99,,2013-02-01 09:21:00,
2013-02-01 02:32:00,39.0,33.0,-100.00,SSW,206,7.0,9.0,78,0.00,,,-99.99,,2013-02-01 09:32:00,
2013-02-01 02:41:00,39.0,33.0,-100.00,SSW,195,7.0,9.0,77,0.00,,,-99.99,,2013-02-01 09:41:00,
2013-02-01 02:52:00,39.0,33.0,-100.00,SSW,208,5.0,9.0,76,0.00,,,-99.99,,2013-02-01 09:52:00,
2013-02-01 03:01:00,39.0,33.0,-100.00,SSW,208,5.0,9.0,76,0.00,,,-99.99,,2013-02-01 10:01:00,
2013-02-01 03:11:00,40.0,33.0,-100.00,South,191,8.0,9.0,76,0.00,,,-99.99,,2013-02-01 10:11:00,
2013-02-01 03:21:00,40.0,33.0,-100.00,SSW,208,4.0,7.0,76,0.00,,,-99.99,,2013-02-01 10:21:00,
2013-02-01 03:31:00,40.0,33.0,-100.00,SSW,208,4.0,7.0,76,0.00,,,-99.99,,2013-02-01 10:31:00,
2013-02-01 03:42:00,39.0,32.0,-100.00,South,179,11.0,14.0,78,0.00,,,-99.99,,2013-02-01 10:42:00,
2013-02-01 03:53:00,39.0,32.0,-100.00,South,179,11.0,14.0,78,0.00,,,-99.99,,2013-02-01 10:53:00,
2013-02-01 04:01:00,39.0,32.0,-100.00,South,179,11.0,14.0,78,0.00,,,-99.99,,2013-02-01 11:01:00,
2013-02-01 04:11:00,39.0,32.0,-100.00,South,182,7.0,11.0,77,0.00,,,-99.99,,2013-02-01 11:11:00,
2013-02-01 04:21:00,39.0,33.0,-100.00,SSW,193,7.0,9.0,77,0.00,,,-99.99,,2013-02-01 11:21:00,
2013-02-01 04:32:00,39.0,33.0,-100.00,SSW,193,7.0,9.0,77,0.00,,,-99.99,,2013-02-01 11:32:00,
2013-02-01 04:41:00,39.0,33.0,-100.00,SSW,193,8.0,12.0,77,0.00,,,-99.99,,2013-02-01 11:41:00,
2013-02-01 04:53:00,39.0,32.0,-100.00,SSW,193,8.0,11.0,75,0.00,,,-99.99,,2013-02-01 11:53:00,
2013-02-01 05:02:00,39.0,32.0,-100.00,SSW,193,8.0,11.0,75,0.00,,,-99.99,,2013-02-01 12:02:00,
2013-02-01 05:12:00,39.0,32.0,-100.00,SSW,193,8.0,11.0,75,0.00,,,-99.99,,2013-02-01 12:12:00,
2013-02-01 05:22:00,39.0,32.0,-100.00,SSW,203,6.0,10.0,75,0.00,,,-99.99,,2013-02-01 12:22:00,
2013-02-01 05:30:00,40.0,32.0,-100.00,WSW,237,4.0,7.0,73,0.00,,,-99.99,,2013-02-01 12:30:00,
2013-02-01 05:32:00,39.0,32.0,-100.00,SSW,203,6.0,10.0,75,0.00,,,-99.99,,2013-02-01 12:32:00,
2013-02-01 05:42:00,39.0,32.0,-100.00,SSW,208,4.0,7.0,75,0.00,,,-99.99,,2013-02-01 12:42:00,
2013-02-01 05:52:00,39.0,32.0,-100.00,SSW,208,4.0,7.0,75,0.00,,,-99.99,,2013-02-01 12:52:00,
2013-02-01 06:02:00,39.0,32.0,-100.00,SSW,208,4.0,7.0,75,0.00,,,-99.99,,2013-02-01 13:02:00,
2013-02-01 06:11:00,40.0,32.0,-100.00,WSW,237,4.0,7.0,73,0.00,,,-99.99,,2013-02-01 13:11:00,
2013-02-01 06:21:00,40.0,32.0,-100.00,WSW,237,4.0,7.0,73,0.00,,,-99.99,,2013-02-01 13:21:00,
2013-02-01 06:42:00,39.0,31.0,-100.00,WSW,243,3.0,5.0,74,0.00,,,-99.99,,2013-02-01 13:42:00,
2013-02-01 06:53:00,39.0,31.0,-100.00,SW,227,4.0,9.0,73,0.00,,,-99.99,,2013-02-01 13:53:00,
2013-02-01 07:03:00,39.0,31.0,-100.00,SW,227,4.0,9.0,73,0.00,,,-99.99,,2013-02-01 14:03:00,
2013-02-01 07:11:00,39.0,31.0,-100.00,WSW,257,4.0,7.0,73,0.00,,,-99.99,,2013-02-01 14:11:00,
2013-02-01 07:21:00,39.0,31.0,-100.00,WSW,257,4.0,7.0,73,0.00,,,-99.99,,2013-02-01 14:21:00,
2013-02-01 07:32:00,39.0,31.0,-100.00,WSW,257,4.0,7.0,73,0.00,,,-99.99,,2013-02-01 14:32:00,
2013-02-01 07:42:00,40.0,31.0,-100.00,WSW,251,5.0,7.0,70,0.00,,,-99.99,,2013-02-01 14:42:00,
2013-02-01 07:52:00,39.0,31.0,-100.00,WSW,243,4.0,9.0,71,0.00,,,-99.99,,2013-02-01 14:52:00,
2013-02-01 08:02:00,39.0,31.0,-100.00,WSW,243,4.0,9.0,71,0.00,,,-99.99,,2013-02-01 15:02:00,
2013-02-01 08:12:00,39.0,31.0,-100.00,WSW,241,5.0,9.0,71,0.00,,,-99.99,,2013-02-01 15:12:00,
2013-02-01 08:21:00,39.0,31.0,-100.00,WSW,246,7.0,13.0,72,0.00,,,-99.99,,2013-02-01 15:21:00,
2013-02-01 08:32:00,39.0,31.0,-100.00,WSW,246,7.0,13.0,72,0.00,,,-99.99,,2013-02-01 15:32:00,
2013-02-01 08:42:00,38.0,31.0,-100.00,WSW,256,6.0,10.0,76,0.00,,,-99.99,,2013-02-01 15:42:00,
2013-02-01 08:52:00,38.0,31.0,-100.00,WSW,256,6.0,10.0,76,0.00,,,-99.99,,2013-02-01 15:52:00,
2013-02-01 09:02:00,38.0,31.0,-100.00,WSW,256,6.0,10.0,76,0.00,,,-99.99,,2013-02-01 16:02:00,
2013-02-01 09:11:00,38.0,32.0,-100.00,West,263,3.0,7.0,77,0.00,,,-99.99,,2013-02-01 16:11:00,
2013-02-01 09:22:00,38.0,32.0,-100.00,West,281,4.0,13.0,78,0.00,,,-99.99,,2013-02-01 16:22:00,
2013-02-01 09:32:00,38.0,32.0,-100.00,West,281,4.0,13.0,78,0.00,,,-99.99,,2013-02-01 16:32:00,
2013-02-01 09:42:00,38.0,32.0,-100.00,WNW,295,5.0,8.0,79,0.00,,,-99.99,,2013-02-01 16:42:00,
2013-02-01 09:52:00,38.0,32.0,-100.00,NW,308,5.0,12.0,80,0.00,,,-99.99,,2013-02-01 16:52:00,
2013-02-01 10:02:00,38.0,32.0,-100.00,NW,308,5.0,12.0,80,0.00,,,-99.99,,2013-02-01 17:02:00,
2013-02-01 10:11:00,37.0,32.0,-100.00,NW,308,2.0,4.0,81,0.00,,,-99.99,,2013-02-01 17:11:00,
2013-02-01 10:22:00,36.0,32.0,-100.00,NNW,332,4.0,7.0,84,0.00,,,-99.99,,2013-02-01 17:22:00,
2013-02-01 10:32:00,36.0,32.0,-100.00,NNW,332,4.0,7.0,84,0.00,,,-99.99,,2013-02-01 17:32:00,
2013-02-01 10:42:00,36.0,32.0,-100.00,WNW,287,4.0,5.0,87,0.00,,,-99.99,,2013-02-01 17:42:00,
2013-02-01 10:53:00,36.0,32.0,-100.00,WNW,287,4.0,5.0,87,0.00,,,-99.99,,2013-02-01 17:53:00,
2013-02-01 11:02:00,36.0,32.0,-100.00,WNW,287,4.0,5.0,87,0.00,,,-99.99,,2013-02-01 18:02:00,
2013-02-01 11:11:00,36.0,33.0,-100.00,West,281,6.0,13.0,89,0.00,,,-99.99,,2013-02-01 18:11:00,
2013-02-01 11:22:00,36.0,33.0,-100.00,West,265,4.0,8.0,89,0.00,,,-99.99,,2013-02-01 18:22:00,
2013-02-01 11:32:00,36.0,33.0,-100.00,West,265,4.0,8.0,89,0.00,,,-99.99,,2013-02-01 18:32:00,
2013-02-01 11:42:00,37.0,34.0,-100.00,WNW,282,8.0,11.0,87,0.00,,,-99.99,,2013-02-01 18:42:00,
2013-02-01 11:53:00,38.0,34.0,-100.00,WNW,291,3.0,6.0,86,0.00,,,-99.99,,2013-02-01 18:53:00,
2013-02-01 12:02:00,38.0,34.0,-100.00,WNW,291,3.0,6.0,86,0.00,,,-99.99,,2013-02-01 19:02:00,
2013-02-01 12:11:00,38.0,34.0,-100.00,West,280,4.0,7.0,85,0.00,,,-99.99,,2013-02-01 19:11:00,
2013-02-01 12:21:00,39.0,34.0,-100.00,West,263,4.0,9.0,83,0.00,,,-99.99,,2013-02-01 19:21:00,
2013-02-01 12:32:00,39.0,34.0,-100.00,West,263,4.0,9.0,83,0.00,,,-99.99,,2013-02-01 19:32:00,
2013-02-01 12:41:00,39.0,34.0,-100.00,West,272,9.0,15.0,81,0.00,,,-99.99,,2013-02-01 19:41:00,
2013-02-01 12:52:00,39.0,34.0,-100.00,West,277,5.0,12.0,81,0.00,,,-99.99,,2013-02-01 19:52:00,
2013-02-01 13:02:00,39.0,34.0,-100.00,West,277,5.0,12.0,81,0.00,,,-99.99,,2013-02-01 20:02:00,
2013-02-01 13:11:00,40.0,34.0,-100.00,WSW,257,5.0,8.0,79,0.00,,,-99.99,,2013-02-01 20:11:00,
2013-02-01 13:21:00,40.0,34.0,-100.00,WSW,257,5.0,8.0,79,0.00,,,-99.99,,2013-02-01 20:21:00,
2013-02-01 13:31:00,40.0,34.0,-100.00,WSW,257,5.0,8.0,79,0.00,,,-99.99,,2013-02-01 20:31:00,
2013-02-01 13:41:00,39.0,34.0,-100.00,WSW,256,2.0,3.0,80,0.00,,,-99.99,,2013-02-01 20:41:00,
2013-02-01 13:52:00,39.0,34.0,-100.00,NW,315,4.0,7.0,81,0.00,,,-99.99,,2013-02-01 20:52:00,
2013-02-01 14:01:00,39.0,34.0,-100.00,NW,315,4.0,7.0,81,0.00,,,-99.99,,2013-02-01 21:01:00,
2013-02-01 14:11:00,40.0,33.0,-100.00,NNW,347,4.0,7.0,78,0.00,,,-99.99,,2013-02-01 21:11:00,
2013-02-01 14:21:00,40.0,33.0,-100.00,NNW,347,4.0,7.0,78,0.00,,,-99.99,,2013-02-01 21:21:00,
2013-02-01 14:31:00,40.0,33.0,-100.00,NNW,347,4.0,7.0,78,0.00,,,-99.99,,2013-02-01 21:31:00,
2013-02-01 14:41:00,41.0,34.0,-100.00,NW,325,5.0,10.0,76,0.00,,,-99.99,,2013-02-01 21:41:00,
2013-02-01 14:52:00,41.0,34.0,-100.00,WNW,282,8.0,12.0,75,0.00,,,-99.99,,2013-02-01 21:52:00,
2013-02-01 15:02:00,41.0,34.0,-100.00,WNW,282,8.0,12.0,75,0.00,,,-99.99,,2013-02-01 22:02:00,
2013-02-01 15:11:00,41.0,34.0,-100.00,NW,308,6.0,11.0,76,0.00,,,-99.99,,2013-02-01 22:11:00,
2013-02-01 15:21:00,43.0,34.0,-100.00,WNW,295,7.0,12.0,72,0.00,,,-99.99,,2013-02-01 22:21:00,
2013-02-01 15:32:00,43.0,34.0,-100.00,WNW,295,7.0,12.0,72,0.00,,,-99.99,,2013-02-01 22:32:00,
2013-02-01 15:42:00,43.0,35.0,-100.00,WNW,296,6.0,13.0,71,0.00,,,-99.99,,2013-02-01 22:42:00,
2013-02-01 15:52:00,43.0,34.0,-100.00,WNW,302,7.0,11.0,71,0.00,,,-99.99,,2013-02-01 22:52:00,
2013-02-01 16:01:00,43.0,34.0,-100.00,WNW,302,7.0,11.0,71,0.00,,,-99.99,,2013-02-01 23:01:00,
2013-02-01 16:11:00,42.0,34.0,-100.00,West,277,6.0,10.0,72,0.00,,,-99.99,,2013-02-01 23:11:00,
2013-02-01 16:21:00,41.0,34.0,-100.00,West,268,6.0,11.0,76,0.00,,,-99.99,,2013-02-01 23:21:00,
2013-02-01 16:31:00,41.0,34.0,-100.00,West,268,6.0,11.0,76,0.00,,,-99.99,,2013-02-01 23:31:00,
2013-02-01 16:42:00,40.0,34.0,-100.00,WNW,296,7.0,9.0,78,0.00,,,-99.99,,2013-02-01 23:42:00,
2013-02-01 16:52:00,40.0,34.0,-100.00,WNW,296,7.0,9.0,78,0.00,,,-99.99,,2013-02-01 23:52:00,
2013-02-01 17:01:00,40.0,34.0,-100.00,WNW,296,7.0,9.0,78,0.00,,,-99.99,,2013-02-02 00:01:00,
2013-02-01 17:11:00,41.0,35.0,-100.00,WNW,284,2.0,6.0,78,0.00,,,-99.99,,2013-02-02 00:11:00,
2013-02-01 17:21:00,41.0,35.0,-100.00,West,274,4.0,8.0,78,0.00,,,-99.99,,2013-02-02 00:21:00,
2013-02-01 17:32:00,41.0,35.0,-100.00,West,274,4.0,8.0,78,0.00,,,-99.99,,2013-02-02 00:32:00,
2013-02-01 17:41:00,40.0,34.0,-100.00,WNW,299,5.0,9.0,79,0.00,,,-99.99,,2013-02-02 00:41:00,
2013-02-01 17:52:00,39.0,34.0,-100.00,WSW,258,4.0,6.0,81,0.00,,,-99.99,,2013-02-02 00:52:00,
2013-02-01 18:02:00,39.0,34.0,-100.00,WSW,258,4.0,6.0,81,0.00,,,-99.99,,2013-02-02 01:02:00,
2013-02-01 18:11:00,39.0,34.0,-100.00,WSW,258,4.0,6.0,81,0.00,,,-99.99,,2013-02-02 01:11:00,
2013-02-01 18:21:00,39.0,33.0,-100.00,WSW,244,2.0,3.0,82,0.00,,,-99.99,,2013-02-02 01:21:00,
2013-02-01 18:31:00,39.0,33.0,-100.00,WSW,244,2.0,3.0,82,0.00,,,-99.99,,2013-02-02 01:31:00,
2013-02-01 18:41:00,38.0,33.0,-100.00,WSW,256,2.0,3.0,84,0.00,,,-99.99,,2013-02-02 01:41:00,
2013-02-01 18:52:00,38.0,33.0,-100.00,WSW,241,2.0,5.0,84,0.00,,,-99.99,,2013-02-02 01:52:00,
2013-02-01 19:01:00,38.0,33.0,-100.00,WSW,241,2.0,5.0,84,0.00,,,-99.99,,2013-02-02 02:01:00,
2013-02-01 19:11:00,37.0,33.0,-100.00,SW,222,2.0,4.0,84,0.00,,,-99.99,,2013-02-02 02:11:00,
2013-02-01 19:21:00,37.0,33.0,-100.00,SW,223,2.0,4.0,84,0.00,,,-99.99,,2013-02-02 02:21:00,
2013-02-01 19:31:00,37.0,33.0,-100.00,SW,223,2.0,4.0,84,0.00,,,-99.99,,2013-02-02 02:31:00,
2013-02-01 19:41:00,38.0,33.0,-100.00,SSW,208,6.0,11.0,81,0.00,,,-99.99,,2013-02-02 02:41:00,
2013-02-01 19:52:00,38.0,32.0,-100.00,SW,233,3.0,6.0,79,0.00,,,-99.99,,2013-02-02 02:52:00,
2013-02-01 20:02:00,38.0,32.0,-100.00,SW,233,3.0,6.0,79,0.00,,,-99.99,,2013-02-02 03:02:00,
2013-02-01 20:11:00,38.0,32.0,-100.00,SW,217,2.0,3.0,77,0.00,,,-99.99,,2013-02-02 03:11:00,
2013-02-01 20:21:00,38.0,31.0,-100.00,WSW,240,2.0,3.0,78,0.00,,,-99.99,,2013-02-02 03:21:00,
2013-02-01 20:32:00,38.0,31.0,-100.00,WSW,240,2.0,3.0,78,0.00,,,-99.99,,2013-02-02 03:32:00,
2013-02-01 20:42:00,37.0,32.0,-100.00,NNW,339,3.0,4.0,80,0.00,,,-99.99,,2013-02-02 03:42:00,
2013-02-01 20:52:00,36.0,33.0,-100.00,NE,55,2.0,4.0,87,0.00,,,-99.99,,2013-02-02 03:52:00,
2013-02-01 21:01:00,36.0,33.0,-100.00,NE,55,2.0,4.0,87,0.00,,,-99.99,,2013-02-02 04:01:00,
2013-02-01 21:11:00,36.0,33.0,-100.00,East,83,2.0,3.0,88,0.00,,,-99.99,,2013-02-02 04:11:00,
2013-02-01 21:21:00,37.0,33.0,-100.00,East,93,1.0,3.0,86,0.00,,,-99.99,,2013-02-02 04:21:00,
2013-02-01 21:32:00,37.0,33.0,-100.00,East,93,1.0,3.0,86,0.00,,,-99.99,,2013-02-02 04:32:00,
2013-02-01 21:41:00,37.0,33.0,-100.00,ESE,121,1.0,2.0,85,0.00,,,-99.99,,2013-02-02 04:41:00,
2013-02-01 21:52:00,38.0,33.0,-100.00,WSW,256,2.0,3.0,81,0.00,,,-99.99,,2013-02-02 04:52:00,
2013-02-01 22:03:00,38.0,33.0,-100.00,WSW,256,2.0,3.0,81,0.00,,,-99.99,,2013-02-02 05:03:00,
2013-02-01 22:11:00,38.0,32.0,-100.00,SSW,205,1.0,2.0,80,0.00,,,-99.99,,2013-02-02 05:11:00,
2013-02-01 22:22:00,38.0,32.0,-100.00,SW,215,1.0,3.0,79,0.00,,,-99.99,,2013-02-02 05:22:00,
2013-02-01 22:33:00,38.0,32.0,-100.00,SW,215,1.0,3.0,79,0.00,,,-99.99,,2013-02-02 05:33:00,
2013-02-01 22:41:00,38.0,32.0,-100.00,SSW,203,2.0,3.0,79,0.00,,,-99.99,,2013-02-02 05:41:00,
2013-02-01 22:52:00,38.0,32.0,-100.00,WSW,237,2.0,4.0,79,0.00,,,-99.99,,2013-02-02 05:52:00,
2013-02-01 23:02:00,38.0,32.0,-100.00,WSW,237,2.0,4.0,79,0.00,,,-99.99,,2013-02-02 06:02:00,
2013-02-01 23:12:00,38.0,32.0,-100.00,SSW,195,1.0,2.0,78,0.00,,,-99.99,,2013-02-02 06:12:00,
2013-02-01 23:21:00,37.0,31.0,-100.00,SSW,199,1.0,2.0,78,0.00,,,-99.99,,2013-02-02 06:21:00,
2013-02-01 23:31:00,37.0,31.0,-100.00,SSW,199,1.0,2.0,78,0.00,,,-99.99,,2013-02-02 06:31:00,
2013-02-01 23:41:00,37.0,30.0,-100.00,SSE,160,2.0,4.0,76,0.00,,,-99.99,,2013-02-02 06:41:00,
2013-02-01 23:52:00,36.0,31.0,-100.00,South,172,1.0,2.0,80,0.00,,,-99.99,,2013-02-02 06:52:00,